createdAt,value
2022-08-23T00:02:23.590Z,3.40
2022-08-23T00:07:25.770Z,4.07
2022-08-23T00:12:31.493Z,4.20
2022-08-23T00:17:34.541Z,3.87
2022-08-23T00:22:36.858Z,3.80
2022-08-23T00:27:38.585Z,3.67
2022-08-23T00:32:40.332Z,3.70
2022-08-23T00:37:42.158Z,4.37
2022-08-23T00:43:10.139Z,4.00
2022-08-23T00:48:11.795Z,4.30
2022-08-23T00:53:18.080Z,4.13
2022-08-23T00:58:20.033Z,4.40
2022-08-23T01:03:22.587Z,4.17
2022-08-23T01:08:25.783Z,3.90
2022-08-23T01:13:32.923Z,3.70
2022-08-23T01:18:34.564Z,3.87
2022-08-23T01:23:41.866Z,4.27
2022-08-23T01:28:45.784Z,4.07
2022-08-23T01:33:59.968Z,4.27
2022-08-23T01:39:02.547Z,4.10
2022-08-23T01:44:09.073Z,4.70
2022-08-23T01:49:12.285Z,4.10
2022-08-23T01:54:14.072Z,4.27
2022-08-23T01:59:16.274Z,4.40
2022-08-23T02:04:22.475Z,4.53
2022-08-23T02:09:25.759Z,4.23
2022-08-23T02:14:30.350Z,4.20
2022-08-23T02:19:35.438Z,4.20
2022-08-23T02:24:42.417Z,4.13
2022-08-23T02:29:44.985Z,4.57
2022-08-23T02:34:51.006Z,4.67
2022-08-23T02:40:01.671Z,4.83
2022-08-23T02:45:04.623Z,4.63
2022-08-23T02:50:08.683Z,4.70
2022-08-23T02:55:10.758Z,5.00
2022-08-23T03:00:12.871Z,4.80
2022-08-23T03:05:15.383Z,5.20
2022-08-23T03:10:17.181Z,4.50
2022-08-23T03:15:25.420Z,5.00
2022-08-23T03:20:28.409Z,5.43
2022-08-23T03:25:30.582Z,5.40
2022-08-23T03:30:40.557Z,4.90
2022-08-23T03:35:43.575Z,5.13
2022-08-23T03:40:47.311Z,5.90
2022-08-23T03:45:49.312Z,5.60
2022-08-23T03:50:51.395Z,5.40
2022-08-23T03:55:56.462Z,6.13
2022-08-23T04:00:58.835Z,5.87
2022-08-23T04:06:00.605Z,7.33
2022-08-23T04:11:03.213Z,7.00
2022-08-23T04:16:05.267Z,6.30
2022-08-23T04:21:12.707Z,6.07
2022-08-23T04:26:14.413Z,7.10
2022-08-23T04:31:18.407Z,6.37
2022-08-23T04:36:23.541Z,5.83
2022-08-23T04:41:44.634Z,6.13
2022-08-23T04:46:47.198Z,6.70
2022-08-23T04:51:52.975Z,6.30
2022-08-23T04:56:56.618Z,6.30
2022-08-23T05:01:58.442Z,6.60
2022-08-23T05:07:00.173Z,6.80
2022-08-23T05:12:01.929Z,7.20
2022-08-23T05:17:05.444Z,6.23
2022-08-23T05:22:10.343Z,6.90
2022-08-23T05:27:36.821Z,7.20
2022-08-23T05:32:39.109Z,7.27
2022-08-23T05:37:43.204Z,6.90
2022-08-23T05:42:45.385Z,6.70
2022-08-23T05:47:47.134Z,7.27
2022-08-23T05:53:11.837Z,7.10
2022-08-23T05:58:14.874Z,6.50
2022-08-23T06:03:16.635Z,6.67
2022-08-23T06:08:18.335Z,6.10
2022-08-23T06:13:20.332Z,6.00
2022-08-23T06:18:22.202Z,6.07
2022-08-23T06:23:28.901Z,5.80
2022-08-23T06:28:30.682Z,5.77
2022-08-23T06:33:32.470Z,5.80
2022-08-23T06:38:59.627Z,4.30
2022-08-23T06:44:21.270Z,5.73
2022-08-23T06:49:30.953Z,5.30
2022-08-23T06:54:33.933Z,4.90
2022-08-23T06:59:57.064Z,5.37
2022-08-23T07:05:19.363Z,5.30
2022-08-23T07:10:40.875Z,4.77
2022-08-23T07:15:42.564Z,4.90
2022-08-23T07:20:45.677Z,4.87
2022-08-23T07:25:47.468Z,4.77
2022-08-23T07:30:52.723Z,5.20
2022-08-23T07:35:54.639Z,6.20
2022-08-23T07:40:58.716Z,3.47
2022-08-23T07:46:01.019Z,3.80
2022-08-23T07:51:04.571Z,2.70
2022-08-23T07:56:08.021Z,2.93
2022-08-23T08:01:48.268Z,2.90
2022-08-23T08:07:10.420Z,3.13
2022-08-23T08:12:17.695Z,2.70
2022-08-23T08:17:27.270Z,2.53
2022-08-23T08:22:51.005Z,2.93
2022-08-23T08:28:15.183Z,2.13
2022-08-23T08:33:17.729Z,3.10
2022-08-23T08:38:22.184Z,2.70
2022-08-23T08:44:05.493Z,2.60
2022-08-23T08:49:07.882Z,2.33
2022-08-23T08:54:10.292Z,2.50
2022-08-23T08:59:23.579Z,2.17
2022-08-23T09:04:25.726Z,2.50
2022-08-23T09:09:50.951Z,2.87
2022-08-23T09:15:17.467Z,1.80
2022-08-23T09:20:21.428Z,1.93
2022-08-23T09:25:25.595Z,1.57
2022-08-23T09:30:48.660Z,2.13
2022-08-23T09:36:12.561Z,2.40
2022-08-23T09:41:19.302Z,2.20
2022-08-23T09:46:30.354Z,2.20
2022-08-23T09:51:37.780Z,2.03
2022-08-23T09:56:47.317Z,1.80
2022-08-23T10:01:50.693Z,2.53
2022-08-23T10:06:52.888Z,2.00
2022-08-23T10:11:57.171Z,1.70
2022-08-23T10:17:15.748Z,2.07
2022-08-23T10:22:26.236Z,1.80
2022-08-23T10:28:39.488Z,2.23
2022-08-23T10:34:00.790Z,2.90
2022-08-23T10:39:06.279Z,2.20
2022-08-23T10:44:25.960Z,1.87
2022-08-23T10:49:29.505Z,1.90
2022-08-23T10:54:46.843Z,2.03
2022-08-23T10:59:52.312Z,2.10
2022-08-23T11:05:17.171Z,1.93
2022-08-23T11:10:37.543Z,1.60
2022-08-23T11:15:58.428Z,1.70
2022-08-23T11:21:05.608Z,1.93
2022-08-23T11:26:40.057Z,1.80
2022-08-23T11:31:50.718Z,1.60
2022-08-23T11:37:18.362Z,2.60
2022-08-23T11:42:20.847Z,1.70
2022-08-23T11:47:39.046Z,2.70
2022-08-23T11:53:19.381Z,1.80
2022-08-23T11:58:23.419Z,1.70
2022-08-23T12:03:47.574Z,1.40
2022-08-23T12:09:02.015Z,1.50
2022-08-23T12:14:32.380Z,1.60
2022-08-23T12:19:42.825Z,1.53
2022-08-23T12:24:52.663Z,2.00
2022-08-23T12:30:18.260Z,1.50
2022-08-23T12:35:25.823Z,3.53
2022-08-23T12:40:45.255Z,3.47
2022-08-23T12:45:50.260Z,1.70
2022-08-23T12:50:57.729Z,1.90
2022-08-23T12:56:07.620Z,2.00
2022-08-23T13:01:21.565Z,1.75
2022-08-23T13:06:25.809Z,1.65
2022-08-23T13:11:29.433Z,1.65
2022-08-23T13:16:37.058Z,1.80
2022-08-23T13:21:39.925Z,1.73
2022-08-23T13:26:42.528Z,1.42
2022-08-23T13:32:04.283Z,1.50
2022-08-23T13:37:28.114Z,1.40
2022-08-23T13:42:34.041Z,1.90
2022-08-23T13:47:37.170Z,1.58
2022-08-23T13:53:10.076Z,1.55
2022-08-23T13:58:01.331Z,1.50
2022-08-23T14:03:03.233Z,1.85
2022-08-23T14:08:05.069Z,1.40
2022-08-23T14:13:08.102Z,1.52
2022-08-23T14:18:09.900Z,1.52
2022-08-23T14:23:12.127Z,1.80
2022-08-23T14:28:14.255Z,1.42
2022-08-23T14:33:15.905Z,1.75
2022-08-23T14:38:18.339Z,1.70
2022-08-23T14:43:21.492Z,1.52
2022-08-23T14:48:23.584Z,1.80
2022-08-23T14:53:29.804Z,2.10
2022-08-23T14:58:31.490Z,1.60
2022-08-23T15:03:33.194Z,1.92
2022-08-23T15:08:34.925Z,1.45
2022-08-23T15:13:43.712Z,2.42
2022-08-23T15:18:57.392Z,1.83
2022-08-23T15:23:59.064Z,1.40
2022-08-23T15:29:00.710Z,1.60
2022-08-23T15:34:02.388Z,1.60
2022-08-23T15:39:04.106Z,2.38
2022-08-23T15:44:05.785Z,1.73
2022-08-23T15:49:12.678Z,1.67
2022-08-23T15:54:14.346Z,1.95
2022-08-23T15:59:16.922Z,1.80
2022-08-23T16:04:18.627Z,1.90
2022-08-23T16:09:22.511Z,1.80
2022-08-23T16:14:24.200Z,2.00
2022-08-23T16:19:26.498Z,1.77
2022-08-23T16:24:29.349Z,1.88
2022-08-23T16:29:33.345Z,1.70
2022-08-23T16:34:35.031Z,1.73
2022-08-23T16:39:36.960Z,2.05
2022-08-23T16:44:38.697Z,2.00
2022-08-23T16:49:43.439Z,1.90
2022-08-23T16:54:45.092Z,1.80
2022-08-23T16:59:47.052Z,1.63
2022-08-23T17:04:52.513Z,1.90
2022-08-23T17:09:54.389Z,1.85
2022-08-23T17:14:57.250Z,2.20
2022-08-23T17:19:58.912Z,2.30
2022-08-23T17:25:00.628Z,2.10
2022-08-23T17:30:05.981Z,2.88
2022-08-23T17:35:14.633Z,2.00
2022-08-23T17:40:21.255Z,3.10
2022-08-23T17:45:23.318Z,3.00
2022-08-23T17:50:25.329Z,2.10
2022-08-23T17:55:26.995Z,3.03
2022-08-23T18:00:33.206Z,4.07
2022-08-23T18:05:35.036Z,5.43
2022-08-23T18:10:36.722Z,5.70
2022-08-23T18:15:38.552Z,4.50
2022-08-23T18:20:40.250Z,5.30
2022-08-23T18:25:44.124Z,4.20
2022-08-23T18:30:49.722Z,3.33
2022-08-23T18:35:51.735Z,2.80
2022-08-23T18:40:53.416Z,2.20
2022-08-23T18:45:55.558Z,2.50
2022-08-23T18:50:57.897Z,2.50
2022-08-23T18:55:59.589Z,2.43
2022-08-23T19:01:06.255Z,2.43
2022-08-23T19:06:08.300Z,2.30
2022-08-23T19:11:10.503Z,1.97
2022-08-23T19:16:13.224Z,2.20
2022-08-23T19:21:18.190Z,2.20
2022-08-23T19:26:22.055Z,2.47
2022-08-23T19:31:25.149Z,2.57
2022-08-23T19:36:45.343Z,2.47
2022-08-23T19:41:48.617Z,2.40
2022-08-23T19:46:50.318Z,3.50
2022-08-23T19:51:51.982Z,2.60
2022-08-23T19:56:57.348Z,2.40
2022-08-23T20:01:59.281Z,2.27
2022-08-23T20:07:01.093Z,2.50
2022-08-23T20:12:03.310Z,3.47
2022-08-23T20:17:07.291Z,3.10
2022-08-23T20:22:27.480Z,3.00
2022-08-23T20:27:30.765Z,3.47
2022-08-23T20:32:32.902Z,3.20
2022-08-23T20:37:34.839Z,3.40
2022-08-23T20:42:37.783Z,2.70
2022-08-23T20:47:41.184Z,2.87
2022-08-23T20:52:43.107Z,2.77
2022-08-23T20:57:44.770Z,2.77
2022-08-23T21:02:46.471Z,2.70
2022-08-23T21:07:48.188Z,2.77
2022-08-23T21:12:49.871Z,2.77
2022-08-23T21:17:51.530Z,3.03
2022-08-23T21:22:53.378Z,2.97
2022-08-23T21:27:55.055Z,2.90
2022-08-23T21:32:56.719Z,2.90
2022-08-23T21:37:58.447Z,2.70
2022-08-23T21:43:00.107Z,3.00
2022-08-23T21:48:01.787Z,2.67
2022-08-23T21:53:03.789Z,2.90
2022-08-23T21:58:05.784Z,2.80
2022-08-23T22:03:07.552Z,3.00
2022-08-23T22:08:09.303Z,2.63
2022-08-23T22:13:13.514Z,2.67
2022-08-23T22:18:15.203Z,2.60
2022-08-23T22:23:17.293Z,2.60
2022-08-23T22:28:18.959Z,2.87
2022-08-23T22:33:20.649Z,3.07
2022-08-23T22:38:22.320Z,2.70
2022-08-23T22:43:24.238Z,3.70
2022-08-23T22:48:26.437Z,2.80
2022-08-23T22:53:28.116Z,2.93
2022-08-23T22:58:29.829Z,2.67
2022-08-23T23:03:31.694Z,2.60
2022-08-23T23:08:33.358Z,2.87
2022-08-23T23:13:35.362Z,3.10
2022-08-23T23:18:37.280Z,2.97
2022-08-23T23:23:38.964Z,3.07
2022-08-23T23:28:40.625Z,2.73
2022-08-23T23:33:42.293Z,2.80
2022-08-23T23:38:43.948Z,2.90
2022-08-23T23:43:45.839Z,2.73
2022-08-23T23:48:48.045Z,2.60
2022-08-23T23:53:50.499Z,3.10
2022-08-23T23:58:52.226Z,3.20
